松山國際航空站 - ATIS

METAR RCSS 011700Z 09012KT 9999 -RA SCT007 BKN022 BKN035 18/17 Q1020 NOSIG RMK A3014(D)=

站台狀態:Online
最後更新:2022-12-02 01:00:01